sensor_id;sensor_type;location;lat;lon;timestamp;P1;durP1;ratioP1;P2;durP2;ratioP2
70010;SDS011;59543;37.950;-122.338;2023-04-06T00:02:17;7.50;;;1.48;;
70010;SDS011;59543;37.950;-122.338;2023-04-06T00:04:43;5.25;;;1.48;;
70010;SDS011;59543;37.950;-122.338;2023-04-06T00:07:10;4.57;;;1.40;;
70010;SDS011;59543;37.950;-122.338;2023-04-06T00:09:36;7.30;;;1.75;;
70010;SDS011;59543;37.950;-122.338;2023-04-06T00:12:02;7.80;;;1.98;;
70010;SDS011;59543;37.950;-122.338;2023-04-06T00:14:29;5.90;;;1.40;;
70010;SDS011;59543;37.950;-122.338;2023-04-06T00:16:55;8.30;;;1.92;;
70010;SDS011;59543;37.950;-122.338;2023-04-06T00:19:22;7.80;;;1.88;;
70010;SDS011;59543;37.950;-122.338;2023-04-06T00:21:48;6.65;;;1.90;;
70010;SDS011;59543;37.950;-122.338;2023-04-06T00:24:14;12.38;;;2.13;;
70010;SDS011;59543;37.950;-122.338;2023-04-06T00:26:41;5.13;;;1.63;;
70010;SDS011;59543;37.950;-122.338;2023-04-06T00:29:07;13.75;;;1.85;;
70010;SDS011;59543;37.950;-122.338;2023-04-06T00:31:33;6.60;;;1.80;;
70010;SDS011;59543;37.950;-122.338;2023-04-06T00:34:00;9.18;;;1.73;;
70010;SDS011;59543;37.950;-122.338;2023-04-06T00:36:26;8.75;;;1.75;;
70010;SDS011;59543;37.950;-122.338;2023-04-06T00:38:52;15.80;;;1.80;;
70010;SDS011;59543;37.950;-122.338;2023-04-06T00:41:19;6.82;;;1.30;;
70010;SDS011;59543;37.950;-122.338;2023-04-06T00:43:45;7.57;;;1.20;;
70010;SDS011;59543;37.950;-122.338;2023-04-06T00:46:12;6.28;;;1.20;;
70010;SDS011;59543;37.950;-122.338;2023-04-06T00:48:38;11.45;;;1.40;;
70010;SDS011;59543;37.950;-122.338;2023-04-06T00:51:06;37.88;;;2.22;;
70010;SDS011;59543;37.950;-122.338;2023-04-06T00:53:32;11.07;;;1.38;;
70010;SDS011;59543;37.950;-122.338;2023-04-06T00:55:58;4.45;;;1.60;;
70010;SDS011;59543;37.950;-122.338;2023-04-06T00:58:24;5.72;;;1.30;;
70010;SDS011;59543;37.950;-122.338;2023-04-06T01:00:51;6.43;;;1.20;;
70010;SDS011;59543;37.950;-122.338;2023-04-06T01:03:17;4.72;;;0.98;;
70010;SDS011;59543;37.950;-122.338;2023-04-06T01:05:43;7.95;;;1.48;;
70010;SDS011;59543;37.950;-122.338;2023-04-06T01:08:10;6.97;;;1.30;;
70010;SDS011;59543;37.950;-122.338;2023-04-06T01:10:36;8.40;;;1.17;;
70010;SDS011;59543;37.950;-122.338;2023-04-06T01:13:02;7.65;;;1.20;;
70010;SDS011;59543;37.950;-122.338;2023-04-06T01:15:29;7.18;;;0.88;;
70010;SDS011;59543;37.950;-122.338;2023-04-06T01:17:55;6.70;;;1.23;;
70010;SDS011;59543;37.950;-122.338;2023-04-06T01:20:21;5.05;;;1.30;;
70010;SDS011;59543;37.950;-122.338;2023-04-06T01:22:48;4.40;;;1.00;;
70010;SDS011;59543;37.950;-122.338;2023-04-06T01:25:14;7.28;;;1.40;;
70010;SDS011;59543;37.950;-122.338;2023-04-06T01:27:40;7.80;;;1.30;;
70010;SDS011;59543;37.950;-122.338;2023-04-06T01:30:07;6.65;;;1.23;;
70010;SDS011;59543;37.950;-122.338;2023-04-06T01:32:34;6.13;;;1.30;;
70010;SDS011;59543;37.950;-122.338;2023-04-06T01:35:00;4.45;;;1.17;;
70010;SDS011;59543;37.950;-122.338;2023-04-06T01:37:27;5.38;;;1.30;;
70010;SDS011;59543;37.950;-122.338;2023-04-06T01:39:55;3.67;;;1.20;;
70010;SDS011;59543;37.950;-122.338;2023-04-06T01:42:21;4.40;;;1.50;;
70010;SDS011;59543;37.950;-122.338;2023-04-06T01:44:48;10.60;;;1.60;;
70010;SDS011;59543;37.950;-122.338;2023-04-06T01:47:14;2.92;;;0.90;;
70010;SDS011;59543;37.950;-122.338;2023-04-06T01:49:40;11.02;;;1.70;;
70010;SDS011;59543;37.950;-122.338;2023-04-06T01:52:06;7.97;;;1.27;;
70010;SDS011;59543;37.950;-122.338;2023-04-06T01:54:33;5.95;;;1.42;;
70010;SDS011;59543;37.950;-122.338;2023-04-06T01:57:00;5.95;;;1.58;;
70010;SDS011;59543;37.950;-122.338;2023-04-06T01:59:26;5.90;;;1.80;;
70010;SDS011;59543;37.950;-122.338;2023-04-06T02:01:52;5.95;;;1.40;;
70010;SDS011;59543;37.950;-122.338;2023-04-06T02:04:18;8.98;;;1.88;;
70010;SDS011;59543;37.950;-122.338;2023-04-06T02:06:46;8.45;;;1.88;;
70010;SDS011;59543;37.950;-122.338;2023-04-06T02:09:13;8.98;;;1.70;;
70010;SDS011;59543;37.950;-122.338;2023-04-06T02:11:40;6.80;;;1.45;;
70010;SDS011;59543;37.950;-122.338;2023-04-06T02:14:06;5.80;;;1.60;;
70010;SDS011;59543;37.950;-122.338;2023-04-06T02:16:32;8.60;;;1.73;;
70010;SDS011;59543;37.950;-122.338;2023-04-06T02:18:59;10.48;;;1.73;;
70010;SDS011;59543;37.950;-122.338;2023-04-06T02:21:25;6.72;;;1.67;;
70010;SDS011;59543;37.950;-122.338;2023-04-06T02:23:51;7.38;;;1.45;;
70010;SDS011;59543;37.950;-122.338;2023-04-06T02:26:18;8.45;;;1.60;;
70010;SDS011;59543;37.950;-122.338;2023-04-06T02:28:44;4.40;;;1.45;;
70010;SDS011;59543;37.950;-122.338;2023-04-06T02:31:10;6.22;;;1.40;;
70010;SDS011;59543;37.950;-122.338;2023-04-06T02:33:37;7.70;;;1.63;;
70010;SDS011;59543;37.950;-122.338;2023-04-06T02:36:03;6.35;;;1.67;;
70010;SDS011;59543;37.950;-122.338;2023-04-06T02:38:29;10.05;;;1.95;;
70010;SDS011;59543;37.950;-122.338;2023-04-06T02:40:56;10.85;;;1.40;;
70010;SDS011;59543;37.950;-122.338;2023-04-06T02:43:22;6.53;;;1.75;;
70010;SDS011;59543;37.950;-122.338;2023-04-06T02:45:48;9.75;;;1.77;;
70010;SDS011;59543;37.950;-122.338;2023-04-06T02:48:14;5.88;;;1.63;;
70010;SDS011;59543;37.950;-122.338;2023-04-06T02:50:41;4.57;;;1.42;;
70010;SDS011;59543;37.950;-122.338;2023-04-06T02:53:07;6.82;;;1.67;;
70010;SDS011;59543;37.950;-122.338;2023-04-06T02:55:34;7.18;;;2.13;;
70010;SDS011;59543;37.950;-122.338;2023-04-06T02:58:00;8.75;;;3.30;;
70010;SDS011;59543;37.950;-122.338;2023-04-06T03:00:26;10.95;;;4.18;;
70010;SDS011;59543;37.950;-122.338;2023-04-06T03:02:52;21.92;;;9.57;;
70010;SDS011;59543;37.950;-122.338;2023-04-06T03:05:19;26.48;;;14.00;;
70010;SDS011;59543;37.950;-122.338;2023-04-06T03:07:45;25.80;;;12.38;;
70010;SDS011;59543;37.950;-122.338;2023-04-06T03:10:11;12.23;;;5.60;;
70010;SDS011;59543;37.950;-122.338;2023-04-06T03:12:37;12.98;;;3.35;;
70010;SDS011;59543;37.950;-122.338;2023-04-06T03:15:07;10.55;;;2.72;;
70010;SDS011;59543;37.950;-122.338;2023-04-06T03:17:34;9.52;;;1.90;;
70010;SDS011;59543;37.950;-122.338;2023-04-06T03:20:00;5.32;;;1.17;;
70010;SDS011;59543;37.950;-122.338;2023-04-06T03:22:26;3.72;;;1.17;;
70010;SDS011;59543;37.950;-122.338;2023-04-06T03:24:53;6.85;;;1.50;;
70010;SDS011;59543;37.950;-122.338;2023-04-06T03:27:19;8.38;;;1.92;;
70010;SDS011;59543;37.950;-122.338;2023-04-06T03:29:45;6.40;;;1.38;;
70010;SDS011;59543;37.950;-122.338;2023-04-06T03:32:11;5.45;;;1.60;;
70010;SDS011;59543;37.950;-122.338;2023-04-06T03:34:38;6.25;;;1.15;;
70010;SDS011;59543;37.950;-122.338;2023-04-06T03:37:05;4.53;;;1.40;;
70010;SDS011;59543;37.950;-122.338;2023-04-06T03:39:31;7.38;;;1.20;;
70010;SDS011;59543;37.950;-122.338;2023-04-06T03:41:57;7.53;;;1.33;;
70010;SDS011;59543;37.950;-122.338;2023-04-06T03:44:24;11.30;;;1.83;;
70010;SDS011;59543;37.950;-122.338;2023-04-06T03:46:50;8.13;;;1.20;;
70010;SDS011;59543;37.950;-122.338;2023-04-06T03:49:16;7.57;;;1.70;;
70010;SDS011;59543;37.950;-122.338;2023-04-06T03:51:42;9.27;;;1.80;;
70010;SDS011;59543;37.950;-122.338;2023-04-06T03:54:09;5.93;;;1.90;;
70010;SDS011;59543;37.950;-122.338;2023-04-06T03:56:35;6.47;;;1.70;;
70010;SDS011;59543;37.950;-122.338;2023-04-06T03:59:01;7.55;;;1.85;;
70010;SDS011;59543;37.950;-122.338;2023-04-06T04:01:28;7.85;;;1.75;;
70010;SDS011;59543;37.950;-122.338;2023-04-06T04:03:54;6.38;;;1.52;;
70010;SDS011;59543;37.950;-122.338;2023-04-06T04:06:20;7.70;;;1.90;;
70010;SDS011;59543;37.950;-122.338;2023-04-06T04:08:46;5.60;;;1.35;;
70010;SDS011;59543;37.950;-122.338;2023-04-06T04:11:13;6.22;;;1.70;;
70010;SDS011;59543;37.950;-122.338;2023-04-06T04:13:41;7.13;;;1.67;;
70010;SDS011;59543;37.950;-122.338;2023-04-06T04:16:07;4.30;;;1.60;;
70010;SDS011;59543;37.950;-122.338;2023-04-06T04:18:33;7.50;;;1.85;;
70010;SDS011;59543;37.950;-122.338;2023-04-06T04:21:00;7.60;;;1.58;;
70010;SDS011;59543;37.950;-122.338;2023-04-06T04:23:26;5.38;;;1.42;;
70010;SDS011;59543;37.950;-122.338;2023-04-06T04:25:52;9.52;;;2.15;;
70010;SDS011;59543;37.950;-122.338;2023-04-06T04:28:18;6.97;;;2.20;;
70010;SDS011;59543;37.950;-122.338;2023-04-06T04:30:45;10.05;;;1.88;;
70010;SDS011;59543;37.950;-122.338;2023-04-06T04:33:11;11.25;;;2.13;;
70010;SDS011;59543;37.950;-122.338;2023-04-06T04:35:38;9.40;;;2.10;;
70010;SDS011;59543;37.950;-122.338;2023-04-06T04:38:04;9.85;;;1.70;;
70010;SDS011;59543;37.950;-122.338;2023-04-06T04:40:30;7.10;;;1.75;;
70010;SDS011;59543;37.950;-122.338;2023-04-06T04:42:57;9.70;;;1.98;;
70010;SDS011;59543;37.950;-122.338;2023-04-06T04:45:23;8.90;;;2.10;;
70010;SDS011;59543;37.950;-122.338;2023-04-06T04:47:49;5.95;;;2.20;;
70010;SDS011;59543;37.950;-122.338;2023-04-06T04:50:15;12.07;;;2.85;;
70010;SDS011;59543;37.950;-122.338;2023-04-06T04:52:42;8.88;;;2.78;;
70010;SDS011;59543;37.950;-122.338;2023-04-06T04:55:08;9.10;;;2.70;;
70010;SDS011;59543;37.950;-122.338;2023-04-06T04:57:34;9.27;;;2.85;;
70010;SDS011;59543;37.950;-122.338;2023-04-06T05:00:01;7.97;;;2.30;;
70010;SDS011;59543;37.950;-122.338;2023-04-06T05:02:27;12.82;;;2.50;;
70010;SDS011;59543;37.950;-122.338;2023-04-06T05:04:54;9.40;;;2.65;;
70010;SDS011;59543;37.950;-122.338;2023-04-06T05:07:20;8.25;;;2.40;;
70010;SDS011;59543;37.950;-122.338;2023-04-06T05:09:46;8.07;;;2.55;;
70010;SDS011;59543;37.950;-122.338;2023-04-06T05:12:13;8.40;;;2.50;;
70010;SDS011;59543;37.950;-122.338;2023-04-06T05:14:40;9.32;;;2.58;;
70010;SDS011;59543;37.950;-122.338;2023-04-06T05:17:06;8.63;;;2.45;;
70010;SDS011;59543;37.950;-122.338;2023-04-06T05:19:33;9.32;;;2.50;;
70010;SDS011;59543;37.950;-122.338;2023-04-06T05:21:59;8.95;;;2.75;;
70010;SDS011;59543;37.950;-122.338;2023-04-06T05:24:25;7.15;;;2.47;;
70010;SDS011;59543;37.950;-122.338;2023-04-06T05:26:51;10.90;;;3.13;;
70010;SDS011;59543;37.950;-122.338;2023-04-06T05:29:18;16.27;;;3.60;;
70010;SDS011;59543;37.950;-122.338;2023-04-06T05:31:45;13.15;;;3.10;;
70010;SDS011;59543;37.950;-122.338;2023-04-06T05:34:12;11.45;;;3.10;;
70010;SDS011;59543;37.950;-122.338;2023-04-06T05:36:38;11.05;;;2.47;;
70010;SDS011;59543;37.950;-122.338;2023-04-06T05:39:05;10.00;;;2.60;;
70010;SDS011;59543;37.950;-122.338;2023-04-06T05:41:32;7.97;;;2.63;;
70010;SDS011;59543;37.950;-122.338;2023-04-06T05:43:58;13.48;;;3.22;;
70010;SDS011;59543;37.950;-122.338;2023-04-06T05:46:25;11.43;;;3.33;;
70010;SDS011;59543;37.950;-122.338;2023-04-06T05:48:51;11.65;;;2.90;;
70010;SDS011;59543;37.950;-122.338;2023-04-06T05:53:43;10.40;;;3.95;;
70010;SDS011;59543;37.950;-122.338;2023-04-06T05:56:10;11.18;;;3.03;;
70010;SDS011;59543;37.950;-122.338;2023-04-06T05:58:36;15.68;;;3.15;;
70010;SDS011;59543;37.950;-122.338;2023-04-06T06:01:03;14.73;;;4.05;;
70010;SDS011;59543;37.950;-122.338;2023-04-06T06:03:30;15.38;;;5.18;;
70010;SDS011;59543;37.950;-122.338;2023-04-06T06:06:00;24.88;;;7.50;;
70010;SDS011;59543;37.950;-122.338;2023-04-06T06:08:27;19.50;;;7.35;;
70010;SDS011;59543;37.950;-122.338;2023-04-06T06:10:53;15.35;;;4.22;;
70010;SDS011;59543;37.950;-122.338;2023-04-06T06:13:21;8.57;;;2.80;;
70010;SDS011;59543;37.950;-122.338;2023-04-06T06:15:48;8.65;;;2.30;;
70010;SDS011;59543;37.950;-122.338;2023-04-06T06:18:14;10.32;;;2.60;;
70010;SDS011;59543;37.950;-122.338;2023-04-06T06:20:40;8.88;;;2.40;;
70010;SDS011;59543;37.950;-122.338;2023-04-06T06:25:32;10.18;;;2.80;;
70010;SDS011;59543;37.950;-122.338;2023-04-06T06:27:59;10.75;;;3.08;;
70010;SDS011;59543;37.950;-122.338;2023-04-06T06:30:25;9.52;;;2.50;;
70010;SDS011;59543;37.950;-122.338;2023-04-06T06:32:51;6.03;;;2.22;;
70010;SDS011;59543;37.950;-122.338;2023-04-06T06:35:18;10.85;;;2.75;;
70010;SDS011;59543;37.950;-122.338;2023-04-06T06:40:10;8.88;;;2.20;;
70010;SDS011;59543;37.950;-122.338;2023-04-06T06:42:38;11.02;;;2.67;;
70010;SDS011;59543;37.950;-122.338;2023-04-06T06:45:06;24.98;;;3.90;;
70010;SDS011;59543;37.950;-122.338;2023-04-06T06:47:33;13.15;;;3.22;;
70010;SDS011;59543;37.950;-122.338;2023-04-06T06:49:59;14.88;;;3.40;;
70010;SDS011;59543;37.950;-122.338;2023-04-06T06:52:25;13.07;;;2.97;;
70010;SDS011;59543;37.950;-122.338;2023-04-06T06:54:54;8.68;;;2.38;;
70010;SDS011;59543;37.950;-122.338;2023-04-06T06:57:21;8.02;;;2.70;;
70010;SDS011;59543;37.950;-122.338;2023-04-06T07:02:13;11.23;;;2.60;;
70010;SDS011;59543;37.950;-122.338;2023-04-06T07:07:05;11.32;;;2.58;;
70010;SDS011;59543;37.950;-122.338;2023-04-06T07:09:32;10.75;;;2.55;;
70010;SDS011;59543;37.950;-122.338;2023-04-06T07:11:58;11.80;;;2.20;;
70010;SDS011;59543;37.950;-122.338;2023-04-06T07:14:26;11.73;;;2.63;;
70010;SDS011;59543;37.950;-122.338;2023-04-06T07:19:18;13.80;;;2.05;;
70010;SDS011;59543;37.950;-122.338;2023-04-06T07:24:10;7.03;;;2.00;;
70010;SDS011;59543;37.950;-122.338;2023-04-06T07:29:02;9.10;;;2.25;;
70010;SDS011;59543;37.950;-122.338;2023-04-06T07:33:54;8.88;;;2.03;;
70010;SDS011;59543;37.950;-122.338;2023-04-06T07:38:46;10.45;;;3.05;;
70010;SDS011;59543;37.950;-122.338;2023-04-06T07:41:14;11.77;;;3.10;;
70010;SDS011;59543;37.950;-122.338;2023-04-06T07:46:06;11.93;;;2.47;;
70010;SDS011;59543;37.950;-122.338;2023-04-06T07:51:04;7.43;;;2.25;;
70010;SDS011;59543;37.950;-122.338;2023-04-06T07:53:31;10.55;;;2.28;;
70010;SDS011;59543;37.950;-122.338;2023-04-06T07:55:58;5.57;;;2.00;;
70010;SDS011;59543;37.950;-122.338;2023-04-06T07:58:25;7.82;;;2.17;;
70010;SDS011;59543;37.950;-122.338;2023-04-06T08:03:17;8.43;;;2.65;;
70010;SDS011;59543;37.950;-122.338;2023-04-06T08:05:45;6.93;;;2.20;;
70010;SDS011;59543;37.950;-122.338;2023-04-06T08:10:38;9.32;;;2.17;;
70010;SDS011;59543;37.950;-122.338;2023-04-06T08:15:30;6.68;;;1.85;;
70010;SDS011;59543;37.950;-122.338;2023-04-06T08:20:22;8.77;;;2.58;;
70010;SDS011;59543;37.950;-122.338;2023-04-06T08:22:48;8.73;;;2.25;;
70010;SDS011;59543;37.950;-122.338;2023-04-06T08:27:40;8.32;;;2.30;;
70010;SDS011;59543;37.950;-122.338;2023-04-06T08:30:07;11.95;;;2.45;;
70010;SDS011;59543;37.950;-122.338;2023-04-06T08:32:33;9.73;;;2.10;;
70010;SDS011;59543;37.950;-122.338;2023-04-06T08:35:00;8.18;;;2.60;;
70010;SDS011;59543;37.950;-122.338;2023-04-06T08:37:26;6.97;;;2.65;;
70010;SDS011;59543;37.950;-122.338;2023-04-06T08:39:53;10.77;;;2.92;;
70010;SDS011;59543;37.950;-122.338;2023-04-06T08:44:47;15.82;;;2.38;;
70010;SDS011;59543;37.950;-122.338;2023-04-06T08:47:16;11.20;;;2.67;;
70010;SDS011;59543;37.950;-122.338;2023-04-06T08:52:10;8.60;;;2.35;;
70010;SDS011;59543;37.950;-122.338;2023-04-06T08:54:37;8.43;;;3.00;;
70010;SDS011;59543;37.950;-122.338;2023-04-06T08:57:04;8.98;;;2.70;;
70010;SDS011;59543;37.950;-122.338;2023-04-06T08:59:31;10.23;;;2.88;;
70010;SDS011;59543;37.950;-122.338;2023-04-06T09:01:59;9.52;;;2.45;;
70010;SDS011;59543;37.950;-122.338;2023-04-06T09:04:28;9.88;;;2.80;;
70010;SDS011;59543;37.950;-122.338;2023-04-06T09:06:55;13.82;;;2.97;;
70010;SDS011;59543;37.950;-122.338;2023-04-06T09:09:21;17.33;;;3.33;;
70010;SDS011;59543;37.950;-122.338;2023-04-06T09:11:50;21.08;;;3.83;;
70010;SDS011;59543;37.950;-122.338;2023-04-06T09:14:32;20.13;;;3.55;;
70010;SDS011;59543;37.950;-122.338;2023-04-06T09:17:03;19.20;;;3.38;;
70010;SDS011;59543;37.950;-122.338;2023-04-06T09:19:29;12.77;;;3.10;;
70010;SDS011;59543;37.950;-122.338;2023-04-06T09:27:07;12.77;;;2.88;;
70010;SDS011;59543;37.950;-122.338;2023-04-06T09:29:33;10.07;;;3.00;;
70010;SDS011;59543;37.950;-122.338;2023-04-06T09:32:02;14.90;;;3.38;;
70010;SDS011;59543;37.950;-122.338;2023-04-06T09:34:32;11.70;;;2.88;;
70010;SDS011;59543;37.950;-122.338;2023-04-06T09:36:59;11.80;;;2.70;;
70010;SDS011;59543;37.950;-122.338;2023-04-06T09:39:26;13.23;;;3.20;;
70010;SDS011;59543;37.950;-122.338;2023-04-06T09:41:53;13.07;;;2.97;;
70010;SDS011;59543;37.950;-122.338;2023-04-06T09:44:20;13.20;;;3.20;;
70010;SDS011;59543;37.950;-122.338;2023-04-06T09:46:49;12.20;;;3.35;;
70010;SDS011;59543;37.950;-122.338;2023-04-06T09:49:19;13.80;;;2.50;;
70010;SDS011;59543;37.950;-122.338;2023-04-06T09:51:46;13.65;;;3.28;;
70010;SDS011;59543;37.950;-122.338;2023-04-06T09:54:19;13.57;;;3.15;;
70010;SDS011;59543;37.950;-122.338;2023-04-06T09:56:50;15.60;;;3.45;;
70010;SDS011;59543;37.950;-122.338;2023-04-06T09:59:26;17.02;;;3.53;;
70010;SDS011;59543;37.950;-122.338;2023-04-06T10:07:09;13.60;;;3.28;;
70010;SDS011;59543;37.950;-122.338;2023-04-06T10:09:37;12.32;;;3.22;;
70010;SDS011;59543;37.950;-122.338;2023-04-06T10:12:04;18.05;;;3.42;;
70010;SDS011;59543;37.950;-122.338;2023-04-06T10:14:34;15.27;;;3.40;;
70010;SDS011;59543;37.950;-122.338;2023-04-06T10:17:04;3.65;;;1.05;;
70010;SDS011;59543;37.950;-122.338;2023-04-06T10:19:39;9.60;;;1.73;;
70010;SDS011;59543;37.950;-122.338;2023-04-06T10:22:18;13.13;;;3.13;;
70010;SDS011;59543;37.950;-122.338;2023-04-06T10:24:55;14.85;;;3.63;;
70010;SDS011;59543;37.950;-122.338;2023-04-06T10:29:54;12.77;;;3.25;;
70010;SDS011;59543;37.950;-122.338;2023-04-06T10:32:37;15.23;;;3.20;;
70010;SDS011;59543;37.950;-122.338;2023-04-06T10:35:11;11.88;;;3.10;;
70010;SDS011;59543;37.950;-122.338;2023-04-06T10:38:00;13.57;;;3.30;;
70010;SDS011;59543;37.950;-122.338;2023-04-06T10:40:28;11.23;;;3.22;;
70010;SDS011;59543;37.950;-122.338;2023-04-06T10:43:07;15.27;;;3.60;;
70010;SDS011;59543;37.950;-122.338;2023-04-06T10:45:34;9.85;;;3.05;;
70010;SDS011;59543;37.950;-122.338;2023-04-06T10:48:01;13.25;;;3.63;;
70010;SDS011;59543;37.950;-122.338;2023-04-06T10:50:46;11.13;;;2.80;;
70010;SDS011;59543;37.950;-122.338;2023-04-06T10:53:23;11.30;;;2.97;;
70010;SDS011;59543;37.950;-122.338;2023-04-06T10:55:51;12.23;;;3.13;;
70010;SDS011;59543;37.950;-122.338;2023-04-06T10:58:19;15.13;;;3.33;;
70010;SDS011;59543;37.950;-122.338;2023-04-06T11:00:46;17.67;;;2.97;;
70010;SDS011;59543;37.950;-122.338;2023-04-06T11:03:13;16.33;;;3.95;;
70010;SDS011;59543;37.950;-122.338;2023-04-06T11:05:46;16.90;;;3.28;;
70010;SDS011;59543;37.950;-122.338;2023-04-06T11:08:29;15.35;;;3.70;;
70010;SDS011;59543;37.950;-122.338;2023-04-06T11:11:07;2.47;;;0.70;;
70010;SDS011;59543;37.950;-122.338;2023-04-06T11:13:48;10.38;;;2.97;;
70010;SDS011;59543;37.950;-122.338;2023-04-06T11:16:24;13.07;;;3.10;;
70010;SDS011;59543;37.950;-122.338;2023-04-06T11:21:43;17.48;;;3.38;;
70010;SDS011;59543;37.950;-122.338;2023-04-06T11:24:14;10.55;;;3.05;;
70010;SDS011;59543;37.950;-122.338;2023-04-06T11:26:51;13.23;;;3.10;;
70010;SDS011;59543;37.950;-122.338;2023-04-06T11:29:21;13.10;;;3.58;;
70010;SDS011;59543;37.950;-122.338;2023-04-06T11:31:49;15.57;;;3.47;;
70010;SDS011;59543;37.950;-122.338;2023-04-06T11:34:21;11.25;;;3.15;;
70010;SDS011;59543;37.950;-122.338;2023-04-06T11:36:49;14.75;;;3.65;;
70010;SDS011;59543;37.950;-122.338;2023-04-06T11:39:22;15.23;;;3.72;;
70010;SDS011;59543;37.950;-122.338;2023-04-06T11:41:50;10.55;;;3.05;;
70010;SDS011;59543;37.950;-122.338;2023-04-06T11:44:31;17.95;;;3.80;;
70010;SDS011;59543;37.950;-122.338;2023-04-06T11:47:00;14.60;;;3.55;;
70010;SDS011;59543;37.950;-122.338;2023-04-06T11:49:31;14.93;;;3.22;;
70010;SDS011;59543;37.950;-122.338;2023-04-06T11:51:58;14.63;;;3.70;;
70010;SDS011;59543;37.950;-122.338;2023-04-06T11:54:35;13.55;;;3.13;;
70010;SDS011;59543;37.950;-122.338;2023-04-06T11:57:03;8.50;;;2.78;;
70010;SDS011;59543;37.950;-122.338;2023-04-06T11:59:34;11.93;;;3.60;;
70010;SDS011;59543;37.950;-122.338;2023-04-06T12:02:01;17.63;;;3.42;;
70010;SDS011;59543;37.950;-122.338;2023-04-06T12:04:28;14.55;;;3.60;;
70010;SDS011;59543;37.950;-122.338;2023-04-06T12:06:55;19.90;;;3.58;;
70010;SDS011;59543;37.950;-122.338;2023-04-06T12:09:21;13.55;;;3.83;;
70010;SDS011;59543;37.950;-122.338;2023-04-06T12:11:48;11.82;;;3.30;;
70010;SDS011;59543;37.950;-122.338;2023-04-06T12:16:41;13.95;;;3.40;;
70010;SDS011;59543;37.950;-122.338;2023-04-06T12:19:07;12.40;;;3.80;;
70010;SDS011;59543;37.950;-122.338;2023-04-06T12:21:34;11.32;;;3.55;;
70010;SDS011;59543;37.950;-122.338;2023-04-06T12:24:03;11.02;;;2.97;;
70010;SDS011;59543;37.950;-122.338;2023-04-06T12:26:31;15.13;;;3.75;;
70010;SDS011;59543;37.950;-122.338;2023-04-06T12:28:58;14.52;;;4.20;;
70010;SDS011;59543;37.950;-122.338;2023-04-06T12:31:31;14.60;;;3.28;;
70010;SDS011;59543;37.950;-122.338;2023-04-06T12:33:59;11.25;;;3.30;;
70010;SDS011;59543;37.950;-122.338;2023-04-06T12:36:28;15.00;;;3.42;;
70010;SDS011;59543;37.950;-122.338;2023-04-06T12:38:55;9.93;;;3.60;;
70010;SDS011;59543;37.950;-122.338;2023-04-06T12:41:21;18.08;;;4.00;;
70010;SDS011;59543;37.950;-122.338;2023-04-06T12:43:48;13.45;;;4.18;;
70010;SDS011;59543;37.950;-122.338;2023-04-06T12:46:17;15.68;;;4.32;;
70010;SDS011;59543;37.950;-122.338;2023-04-06T12:48:45;10.32;;;3.50;;
70010;SDS011;59543;37.950;-122.338;2023-04-06T12:51:11;11.27;;;3.85;;
70010;SDS011;59543;37.950;-122.338;2023-04-06T12:53:38;14.07;;;3.90;;
70010;SDS011;59543;37.950;-122.338;2023-04-06T12:56:14;14.60;;;3.70;;
70010;SDS011;59543;37.950;-122.338;2023-04-06T12:58:42;12.43;;;3.72;;
70010;SDS011;59543;37.950;-122.338;2023-04-06T13:01:09;14.82;;;3.85;;
70010;SDS011;59543;37.950;-122.338;2023-04-06T13:03:38;12.82;;;3.67;;
70010;SDS011;59543;37.950;-122.338;2023-04-06T13:06:06;15.48;;;3.90;;
70010;SDS011;59543;37.950;-122.338;2023-04-06T13:08:33;13.77;;;3.58;;
70010;SDS011;59543;37.950;-122.338;2023-04-06T13:11:02;9.77;;;3.55;;
70010;SDS011;59543;37.950;-122.338;2023-04-06T13:13:29;11.98;;;3.58;;
70010;SDS011;59543;37.950;-122.338;2023-04-06T13:16:05;8.20;;;1.60;;
70010;SDS011;59543;37.950;-122.338;2023-04-06T13:18:34;14.52;;;3.95;;
70010;SDS011;59543;37.950;-122.338;2023-04-06T13:21:04;13.65;;;3.97;;
70010;SDS011;59543;37.950;-122.338;2023-04-06T13:23:31;17.08;;;4.38;;
70010;SDS011;59543;37.950;-122.338;2023-04-06T13:25:58;13.48;;;3.60;;
70010;SDS011;59543;37.950;-122.338;2023-04-06T13:28:29;15.90;;;3.60;;
70010;SDS011;59543;37.950;-122.338;2023-04-06T13:30:57;15.50;;;4.05;;
70010;SDS011;59543;37.950;-122.338;2023-04-06T13:33:24;14.05;;;3.67;;
70010;SDS011;59543;37.950;-122.338;2023-04-06T13:35:51;20.95;;;4.45;;
70010;SDS011;59543;37.950;-122.338;2023-04-06T13:38:17;15.15;;;3.95;;
70010;SDS011;59543;37.950;-122.338;2023-04-06T13:40:44;11.02;;;3.22;;
70010;SDS011;59543;37.950;-122.338;2023-04-06T13:43:10;18.95;;;4.07;;
70010;SDS011;59543;37.950;-122.338;2023-04-06T13:45:37;11.02;;;3.28;;
70010;SDS011;59543;37.950;-122.338;2023-04-06T13:48:04;14.82;;;3.85;;
70010;SDS011;59543;37.950;-122.338;2023-04-06T13:50:30;13.23;;;3.55;;
70010;SDS011;59543;37.950;-122.338;2023-04-06T13:52:58;15.13;;;4.00;;
70010;SDS011;59543;37.950;-122.338;2023-04-06T13:55:25;16.25;;;4.10;;
70010;SDS011;59543;37.950;-122.338;2023-04-06T13:57:51;15.38;;;3.88;;
70010;SDS011;59543;37.950;-122.338;2023-04-06T14:02:43;11.77;;;3.60;;
70010;SDS011;59543;37.950;-122.338;2023-04-06T14:05:10;19.15;;;4.47;;
70010;SDS011;59543;37.950;-122.338;2023-04-06T14:07:36;19.58;;;4.38;;
70010;SDS011;59543;37.950;-122.338;2023-04-06T14:10:03;15.75;;;4.40;;
70010;SDS011;59543;37.950;-122.338;2023-04-06T14:12:29;23.35;;;5.32;;
70010;SDS011;59543;37.950;-122.338;2023-04-06T14:14:56;19.42;;;4.78;;
70010;SDS011;59543;37.950;-122.338;2023-04-06T14:17:25;26.05;;;5.05;;
70010;SDS011;59543;37.950;-122.338;2023-04-06T14:22:18;29.27;;;6.22;;
70010;SDS011;59543;37.950;-122.338;2023-04-06T14:27:10;25.52;;;5.35;;
70010;SDS011;59543;37.950;-122.338;2023-04-06T14:29:36;33.25;;;5.53;;
70010;SDS011;59543;37.950;-122.338;2023-04-06T14:34:28;24.77;;;5.75;;
70010;SDS011;59543;37.950;-122.338;2023-04-06T14:36:55;16.08;;;5.00;;
70010;SDS011;59543;37.950;-122.338;2023-04-06T14:41:47;21.23;;;5.55;;
70010;SDS011;59543;37.950;-122.338;2023-04-06T14:46:42;20.83;;;5.20;;
70010;SDS011;59543;37.950;-122.338;2023-04-06T14:49:09;21.77;;;5.72;;
70010;SDS011;59543;37.950;-122.338;2023-04-06T14:51:35;22.00;;;6.03;;
70010;SDS011;59543;37.950;-122.338;2023-04-06T14:56:30;22.38;;;6.45;;
70010;SDS011;59543;37.950;-122.338;2023-04-06T14:58:57;34.03;;;7.05;;
70010;SDS011;59543;37.950;-122.338;2023-04-06T15:01:26;24.55;;;6.18;;
70010;SDS011;59543;37.950;-122.338;2023-04-06T15:03:53;26.83;;;7.10;;
70010;SDS011;59543;37.950;-122.338;2023-04-06T15:06:19;28.50;;;6.82;;
70010;SDS011;59543;37.950;-122.338;2023-04-06T15:08:47;23.67;;;6.68;;
70010;SDS011;59543;37.950;-122.338;2023-04-06T15:11:15;24.00;;;6.53;;
70010;SDS011;59543;37.950;-122.338;2023-04-06T15:16:08;30.75;;;6.63;;
70010;SDS011;59543;37.950;-122.338;2023-04-06T15:18:34;28.20;;;7.13;;
70010;SDS011;59543;37.950;-122.338;2023-04-06T15:21:00;26.60;;;5.95;;
70010;SDS011;59543;37.950;-122.338;2023-04-06T15:23:27;19.48;;;5.93;;
70010;SDS011;59543;37.950;-122.338;2023-04-06T15:25:58;24.48;;;6.03;;
70010;SDS011;59543;37.950;-122.338;2023-04-06T15:28:24;19.58;;;6.35;;